^^
Station Historical Data
Daily Summary for April 21, 2017 Units:  Both    English   Metric
« Previous Day
Next Day »
Daily Weekly Monthly Yearly Custom
  High: Low: Average:
Temperature: 80.2 °F /  26.8 °C 54.1 °F /  12.3 °C 65.7 °F /  18.7 °C
Dew Point: 62.4 °F /  16.9 °C 53.2 °F /  11.8 °C 58.7 °F /  14.8 °C
Humidity: 98% 46% 81%
Wind Speed: 4.0mph /  6.4km/h - 0.3mph /  0.5km/h
Wind Gust: 8.0mph /  12.9km/h - -
Wind- - ESE
Pressure: 30.16 in /  1021.2 hPa 29.96 in /  1014.4 hPa -
Precipitation: 0.40 in /  10.16 mm    
Historical Graphs
 
 
Tabular Data for April 21, 2017
Time Temperature Dew Point Pressure Wind Wind Speed Wind Gust Humidity Rainfall Rate (Hourly)
00:03 65.1 °F /  18.4 °C 57.7 °F /  14.3 °C 30.16in /  1021.2hPa Calm     77% 0.00in /  0mm
00:08 64.9 °F /  18.3 °C 58.3 °F /  14.6 °C 30.16in /  1021.2hPa Calm     79% 0.00in /  0mm
00:13 64.6 °F /  18.1 °C 58.3 °F /  14.6 °C 30.15in /  1020.9hPa Calm     80% 0.00in /  0mm
00:18 63.9 °F /  17.7 °C 57.9 °F /  14.4 °C 30.15in /  1020.9hPa Calm     81% 0.00in /  0mm
00:23 63.3 °F /  17.4 °C 57.7 °F /  14.3 °C 30.15in /  1020.9hPa Calm     82% 0.00in /  0mm
00:28 63.1 °F /  17.3 °C 57.9 °F /  14.4 °C 30.15in /  1020.9hPa Calm     83% 0.00in /  0mm
00:33 62.8 °F /  17.1 °C 57.9 °F /  14.4 °C 30.15in /  1020.9hPa Calm     84% 0.00in /  0mm
00:43 62.1 °F /  16.7 °C 57.7 °F /  14.3 °C 30.15in /  1020.9hPa Calm     86% 0.00in /  0mm
00:48 61.9 °F /  16.6 °C 57.6 °F /  14.2 °C 30.15in /  1020.9hPa Calm     86% 0.00in /  0mm
00:53 61.9 °F /  16.6 °C 57.6 °F /  14.2 °C 30.16in /  1021.2hPa Calm     86% 0.00in /  0mm
00:58 61.5 °F /  16.4 °C 57.4 °F /  14.1 °C 30.16in /  1021.2hPa Calm     86% 0.00in /  0mm
01:03 61.2 °F /  16.2 °C 57.2 °F /  14 °C 30.16in /  1021.2hPa Calm     87% 0.00in /  0mm
01:08 61.2 °F /  16.2 °C 57.6 °F /  14.2 °C 30.16in /  1021.2hPa Calm     88% 0.00in /  0mm
01:13 61.3 °F /  16.3 °C 57.7 °F /  14.3 °C 30.16in /  1021.2hPa Calm     88% 0.00in /  0mm
01:18 61.2 °F /  16.2 °C 57.6 °F /  14.2 °C 30.15in /  1020.9hPa Calm     88% 0.00in /  0mm
01:23 61.0 °F /  16.1 °C 57.4 °F /  14.1 °C 30.15in /  1020.9hPa Calm     88% 0.00in /  0mm
01:28 61.0 °F /  16.1 °C 57.7 °F /  14.3 °C 30.15in /  1020.9hPa Calm     89% 0.00in /  0mm
01:38 60.8 °F /  16 °C 57.2 °F /  14 °C 30.15in /  1020.9hPa Calm     88% 0.00in /  0mm
01:43 60.6 °F /  15.9 °C 57.0 °F /  13.9 °C 30.14in /  1020.5hPa Calm     88% 0.00in /  0mm
01:48 60.1 °F /  15.6 °C 56.8 °F /  13.8 °C 30.15in /  1020.9hPa Calm     89% 0.00in /  0mm
01:53 59.7 °F /  15.4 °C 56.8 °F /  13.8 °C 30.14in /  1020.5hPa Calm     90% 0.00in /  0mm
01:58 59.4 °F /  15.2 °C 56.7 °F /  13.7 °C 30.15in /  1020.9hPa Calm   1.0mph /  1.6km/h 91% 0.00in /  0mm
02:03 59.4 °F /  15.2 °C 56.7 °F /  13.7 °C 30.14in /  1020.5hPa Calm     91% 0.00in /  0mm
02:08 59.4 °F /  15.2 °C 56.7 °F /  13.7 °C 30.14in /  1020.5hPa Calm     91% 0.00in /  0mm
02:13 59.4 °F /  15.2 °C 57.0 °F /  13.9 °C 30.14in /  1020.5hPa Calm     92% 0.00in /  0mm
02:18 59.2 °F /  15.1 °C 56.8 °F /  13.8 °C 30.14in /  1020.5hPa Calm     92% 0.00in /  0mm
02:23 58.8 °F /  14.9 °C 56.1 °F /  13.4 °C 30.14in /  1020.5hPa Calm     91% 0.00in /  0mm
02:28 58.6 °F /  14.8 °C 55.9 °F /  13.3 °C 30.14in /  1020.5hPa Calm     91% 0.00in /  0mm
02:33 58.5 °F /  14.7 °C 56.5 °F /  13.6 °C 30.14in /  1020.5hPa Calm     93% 0.00in /  0mm
02:38 58.5 °F /  14.7 °C 56.5 °F /  13.6 °C 30.14in /  1020.5hPa Calm     93% 0.00in /  0mm
02:43 58.5 °F /  14.7 °C 56.5 °F /  13.6 °C 30.14in /  1020.5hPa Calm     93% 0.00in /  0mm
02:48 58.5 °F /  14.7 °C 56.5 °F /  13.6 °C 30.14in /  1020.5hPa Calm     93% 0.00in /  0mm
02:53 58.5 °F /  14.7 °C 56.5 °F /  13.6 °C 30.13in /  1020.2hPa Calm     93% 0.00in /  0mm
02:58 58.5 °F /  14.7 °C 56.5 °F /  13.6 °C 30.13in /  1020.2hPa Calm     93% 0.00in /  0mm
03:03 58.3 °F /  14.6 °C 56.3 °F /  13.5 °C 30.13in /  1020.2hPa Calm     93% 0.00in /  0mm
03:09 58.1 °F /  14.5 °C 56.1 °F /  13.4 °C 30.13in /  1020.2hPa Calm     93% 0.00in /  0mm
03:14 57.9 °F /  14.4 °C 55.9 °F /  13.3 °C 30.12in /  1019.9hPa Calm   1.0mph /  1.6km/h 93% 0.00in /  0mm
03:19 57.9 °F /  14.4 °C 55.9 °F /  13.3 °C 30.12in /  1019.9hPa Calm   1.0mph /  1.6km/h 93% 0.00in /  0mm
03:24 57.9 °F /  14.4 °C 55.9 °F /  13.3 °C 30.12in /  1019.9hPa SSW 0.9mph /  1.4km/h 2.0mph /  3.2km/h 93% 0.00in /  0mm
03:26 57.9 °F /  14.4 °C 55.9 °F /  13.3 °C 30.12in /  1019.9hPa SSW 0.9mph /  1.4km/h 1.0mph /  1.6km/h 93% 0.00in /  0mm
03:31 58.1 °F /  14.5 °C 56.1 °F /  13.4 °C 30.12in /  1019.9hPa Calm   1.0mph /  1.6km/h 93% 0.00in /  0mm
03:36 57.9 °F /  14.4 °C 55.9 °F /  13.3 °C 30.12in /  1019.9hPa Calm   1.0mph /  1.6km/h 93% 0.00in /  0mm
03:41 57.9 °F /  14.4 °C 56.1 °F /  13.4 °C 30.12in /  1019.9hPa WSW 0.9mph /  1.4km/h 1.0mph /  1.6km/h 94% 0.00in /  0mm
03:46 57.7 °F /  14.3 °C 55.9 °F /  13.3 °C 30.11in /  1019.5hPa Calm   1.0mph /  1.6km/h 94% 0.00in /  0mm
03:51 57.7 °F /  14.3 °C 55.9 °F /  13.3 °C 30.12in /  1019.9hPa Calm     94% 0.00in /  0mm
03:56 57.4 °F /  14.1 °C 55.4 °F /  13 °C 30.12in /  1019.9hPa Calm     93% 0.00in /  0mm
04:01 57.2 °F /  14 °C 55.8 °F /  13.2 °C 30.12in /  1019.9hPa Calm     95% 0.00in /  0mm
04:11 56.8 °F /  13.8 °C 55.2 °F /  12.9 °C 30.12in /  1019.9hPa Calm     94% 0.00in /  0mm
04:16 56.7 °F /  13.7 °C 55.0 °F /  12.8 °C 30.12in /  1019.9hPa Calm     94% 0.00in /  0mm
04:21 56.8 °F /  13.8 °C 55.4 °F /  13 °C 30.12in /  1019.9hPa Calm     95% 0.00in /  0mm
04:26 56.8 °F /  13.8 °C 55.4 °F /  13 °C 30.12in /  1019.9hPa Calm     95% 0.00in /  0mm
04:31 56.7 °F /  13.7 °C 55.2 °F /  12.9 °C 30.12in /  1019.9hPa Calm     95% 0.00in /  0mm
04:41 56.3 °F /  13.5 °C 54.9 °F /  12.7 °C 30.12in /  1019.9hPa Calm     95% 0.00in /  0mm
04:46 56.1 °F /  13.4 °C 54.7 °F /  12.6 °C 30.12in /  1019.9hPa Calm     95% 0.00in /  0mm
04:51 56.3 °F /  13.5 °C 55.2 °F /  12.9 °C 30.12in /  1019.9hPa Calm   1.0mph /  1.6km/h 96% 0.00in /  0mm
04:56 56.5 °F /  13.6 °C 55.4 °F /  13 °C 30.12in /  1019.9hPa Calm     96% 0.00in /  0mm
05:02 56.1 °F /  13.4 °C 55.0 °F /  12.8 °C 30.12in /  1019.9hPa Calm     96% 0.00in /  0mm
05:07 56.1 °F /  13.4 °C 55.0 °F /  12.8 °C 30.12in /  1019.9hPa Calm     96% 0.00in /  0mm
05:12 56.1 °F /  13.4 °C 55.0 °F /  12.8 °C 30.11in /  1019.5hPa Calm     96% 0.00in /  0mm
05:17 56.1 °F /  13.4 °C 55.0 °F /  12.8 °C 30.11in /  1019.5hPa Calm     96% 0.00in /  0mm
05:22 56.1 °F /  13.4 °C 55.0 °F /  12.8 °C 30.12in /  1019.9hPa Calm     96% 0.00in /  0mm
05:27 56.1 °F /  13.4 °C 55.2 °F /  12.9 °C 30.12in /  1019.9hPa Calm     97% 0.00in /  0mm
05:32 56.1 °F /  13.4 °C 55.0 °F /  12.8 °C 30.12in /  1019.9hPa Calm     96% 0.00in /  0mm
05:37 55.9 °F /  13.3 °C 54.9 °F /  12.7 °C 30.11in /  1019.5hPa Calm     96% 0.00in /  0mm
05:42 55.9 °F /  13.3 °C 54.9 °F /  12.7 °C 30.11in /  1019.5hPa Calm     96% 0.00in /  0mm
05:47 55.8 °F /  13.2 °C 54.7 °F /  12.6 °C 30.11in /  1019.5hPa Calm     96% 0.00in /  0mm
05:52 55.6 °F /  13.1 °C 54.5 °F /  12.5 °C 30.12in /  1019.9hPa Calm     96% 0.00in /  0mm
05:57 55.2 °F /  12.9 °C 54.1 °F /  12.3 °C 30.12in /  1019.9hPa Calm     96% 0.00in /  0mm
06:02 55.4 °F /  13 °C 54.5 °F /  12.5 °C 30.11in /  1019.5hPa Calm     97% 0.00in /  0mm
06:07 55.4 °F /  13 °C 54.5 °F /  12.5 °C 30.11in /  1019.5hPa Calm     97% 0.00in /  0mm
06:12 55.4 °F /  13 °C 54.5 °F /  12.5 °C 30.12in /  1019.9hPa Calm   1.0mph /  1.6km/h 97% 0.00in /  0mm
06:17 55.4 °F /  13 °C 54.5 °F /  12.5 °C 30.11in /  1019.5hPa Calm   1.0mph /  1.6km/h 97% 0.00in /  0mm
06:22 55.4 °F /  13 °C 54.5 °F /  12.5 °C 30.11in /  1019.5hPa Calm   1.0mph /  1.6km/h 97% 0.00in /  0mm
06:27 55.4 °F /  13 °C 54.5 °F /  12.5 °C 30.12in /  1019.9hPa Calm     97% 0.00in /  0mm
06:32 55.2 °F /  12.9 °C 54.3 °F /  12.4 °C 30.12in /  1019.9hPa Calm   1.0mph /  1.6km/h 97% 0.00in /  0mm
06:37 55.2 °F /  12.9 °C 54.3 °F /  12.4 °C 30.12in /  1019.9hPa Calm     97% 0.00in /  0mm
06:42 55.0 °F /  12.8 °C 54.0 °F /  12.2 °C 30.12in /  1019.9hPa Calm     96% 0.00in /  0mm
06:47 55.0 °F /  12.8 °C 54.1 °F /  12.3 °C 30.12in /  1019.9hPa Calm   1.0mph /  1.6km/h 97% 0.00in /  0mm
06:52 54.9 °F /  12.7 °C 54.0 °F /  12.2 °C 30.12in /  1019.9hPa Calm     97% 0.00in /  0mm
06:57 54.9 °F /  12.7 °C 54.0 °F /  12.2 °C 30.12in /  1019.9hPa Calm   1.0mph /  1.6km/h 97% 0.00in /  0mm
07:02 55.0 °F /  12.8 °C 54.1 °F /  12.3 °C 30.12in /  1019.9hPa Calm   1.0mph /  1.6km/h 97% 0.00in /  0mm
07:07 55.0 °F /  12.8 °C 54.1 °F /  12.3 °C 30.12in /  1019.9hPa Calm     97% 0.00in /  0mm
07:12 54.9 °F /  12.7 °C 54.0 °F /  12.2 °C 30.13in /  1020.2hPa Calm   1.0mph /  1.6km/h 97% 0.00in /  0mm
07:17 54.7 °F /  12.6 °C 53.8 °F /  12.1 °C 30.13in /  1020.2hPa Calm     97% 0.00in /  0mm
07:22 54.7 °F /  12.6 °C 53.8 °F /  12.1 °C 30.13in /  1020.2hPa Calm   1.0mph /  1.6km/h 97% 0.00in /  0mm
07:27 54.5 °F /  12.5 °C 53.6 °F /  12 °C 30.13in /  1020.2hPa Calm     97% 0.00in /  0mm
07:32 54.5 °F /  12.5 °C 53.6 °F /  12 °C 30.13in /  1020.2hPa Calm   1.0mph /  1.6km/h 97% 0.00in /  0mm
07:37 54.1 °F /  12.3 °C 53.2 °F /  11.8 °C 30.13in /  1020.2hPa Calm     97% 0.00in /  0mm
07:42 54.3 °F /  12.4 °C 53.4 °F /  11.9 °C 30.13in /  1020.2hPa Calm     97% 0.00in /  0mm
07:47 54.7 °F /  12.6 °C 53.8 °F /  12.1 °C 30.13in /  1020.2hPa Calm     97% 0.00in /  0mm
07:52 54.7 °F /  12.6 °C 53.8 °F /  12.1 °C 30.13in /  1020.2hPa Calm     97% 0.00in /  0mm
07:58 55.0 °F /  12.8 °C 54.1 °F /  12.3 °C 30.13in /  1020.2hPa Calm     97% 0.00in /  0mm
08:03 55.2 °F /  12.9 °C 54.3 °F /  12.4 °C 30.13in /  1020.2hPa Calm   1.0mph /  1.6km/h 97% 0.00in /  0mm
08:08 55.8 °F /  13.2 °C 54.9 °F /  12.7 °C 30.13in /  1020.2hPa Calm     97% 0.00in /  0mm
08:13 56.3 °F /  13.5 °C 55.4 °F /  13 °C 30.13in /  1020.2hPa Calm     97% 0.00in /  0mm
08:18 56.8 °F /  13.8 °C 55.9 °F /  13.3 °C 30.13in /  1020.2hPa Calm     97% 0.00in /  0mm
08:23 57.4 °F /  14.1 °C 55.9 °F /  13.3 °C 30.13in /  1020.2hPa Calm     95% 0.00in /  0mm
08:28 57.9 °F /  14.4 °C 56.1 °F /  13.4 °C 30.13in /  1020.2hPa Calm   1.0mph /  1.6km/h 94% 0.00in /  0mm
08:33 58.6 °F /  14.8 °C 56.7 °F /  13.7 °C 30.12in /  1019.9hPa Calm     93% 0.00in /  0mm
08:38 59.5 °F /  15.3 °C 57.2 °F /  14 °C 30.12in /  1019.9hPa ESE 0.9mph /  1.4km/h 1.0mph /  1.6km/h 92% 0.00in /  0mm
08:43 60.1 °F /  15.6 °C 57.4 °F /  14.1 °C 30.12in /  1019.9hPa East 0.9mph /  1.4km/h 2.0mph /  3.2km/h 91% 0.00in /  0mm
08:48 60.6 °F /  15.9 °C 57.7 °F /  14.3 °C 30.12in /  1019.9hPa Calm   1.0mph /  1.6km/h 90% 0.00in /  0mm
08:53 61.5 °F /  16.4 °C 57.9 °F /  14.4 °C 30.12in /  1019.9hPa Calm   2.0mph /  3.2km/h 88% 0.00in /  0mm
08:58 62.6 °F /  17 °C 58.6 °F /  14.8 °C 30.12in /  1019.9hPa Calm     87% 0.00in /  0mm
09:03 63.3 °F /  17.4 °C 59.0 °F /  15 °C 30.11in /  1019.5hPa Calm   1.0mph /  1.6km/h 86% 0.00in /  0mm
09:08 63.9 °F /  17.7 °C 59.2 °F /  15.1 °C 30.12in /  1019.9hPa Calm   1.0mph /  1.6km/h 85% 0.00in /  0mm
09:13 64.8 °F /  18.2 °C 59.9 °F /  15.5 °C 30.11in /  1019.5hPa Calm   1.0mph /  1.6km/h 84% 0.00in /  0mm
09:18 65.5 °F /  18.6 °C 60.3 °F /  15.7 °C 30.11in /  1019.5hPa East 0.9mph /  1.4km/h 1.0mph /  1.6km/h 83% 0.00in /  0mm
09:23 65.7 °F /  18.7 °C 59.7 °F /  15.4 °C 30.11in /  1019.5hPa ENE 0.9mph /  1.4km/h 2.0mph /  3.2km/h 81% 0.00in /  0mm
09:24 65.7 °F /  18.7 °C 59.7 °F /  15.4 °C 30.11in /  1019.5hPa Calm   1.0mph /  1.6km/h 81% 0.00in /  0mm
09:29 65.7 °F /  18.7 °C 59.4 °F /  15.2 °C 30.11in /  1019.5hPa East 0.9mph /  1.4km/h 1.0mph /  1.6km/h 80% 0.00in /  0mm
09:34 66.0 °F /  18.9 °C 59.7 °F /  15.4 °C 30.11in /  1019.5hPa East 0.9mph /  1.4km/h 2.0mph /  3.2km/h 80% 0.00in /  0mm
09:40 66.7 °F /  19.3 °C 59.7 °F /  15.4 °C 30.11in /  1019.5hPa Calm   2.0mph /  3.2km/h 78% 0.00in /  0mm
09:45 67.3 °F /  19.6 °C 59.9 °F /  15.5 °C 30.10in /  1019.2hPa Calm   2.0mph /  3.2km/h 77% 0.00in /  0mm
09:50 68.2 °F /  20.1 °C 61.0 °F /  16.1 °C 30.10in /  1019.2hPa East 0.9mph /  1.4km/h 2.0mph /  3.2km/h 78% 0.00in /  0mm
10:00 69.8 °F /  21 °C 60.8 °F /  16 °C 30.10in /  1019.2hPa Calm   2.0mph /  3.2km/h 73% 0.00in /  0mm
10:05 70.5 °F /  21.4 °C 61.0 °F /  16.1 °C 30.10in /  1019.2hPa Calm   2.0mph /  3.2km/h 72% 0.00in /  0mm
10:10 71.1 °F /  21.7 °C 60.8 °F /  16 °C 30.10in /  1019.2hPa Calm   2.0mph /  3.2km/h 70% 0.00in /  0mm
10:15 71.1 °F /  21.7 °C 60.8 °F /  16 °C 30.10in /  1019.2hPa Calm   3.0mph /  4.8km/h 70% 0.00in /  0mm
10:20 71.1 °F /  21.7 °C 61.2 °F /  16.2 °C 30.10in /  1019.2hPa Calm   2.0mph /  3.2km/h 71% 0.00in /  0mm
10:25 71.2 °F /  21.8 °C 61.7 °F /  16.5 °C 30.09in /  1018.8hPa East 0.9mph /  1.4km/h 1.0mph /  1.6km/h 72% 0.00in /  0mm
10:30 72.9 °F /  22.7 °C 62.4 °F /  16.9 °C 30.10in /  1019.2hPa Calm   1.0mph /  1.6km/h 70% 0.00in /  0mm
10:35 73.9 °F /  23.3 °C 61.9 °F /  16.6 °C 30.09in /  1018.8hPa Calm   3.0mph /  4.8km/h 66% 0.00in /  0mm
10:40 74.5 °F /  23.6 °C 61.9 °F /  16.6 °C 30.09in /  1018.8hPa Calm   2.0mph /  3.2km/h 65% 0.00in /  0mm
10:45 75.6 °F /  24.2 °C 62.1 °F /  16.7 °C 30.09in /  1018.8hPa Calm   2.0mph /  3.2km/h 63% 0.00in /  0mm
10:50 75.9 °F /  24.4 °C 61.5 °F /  16.4 °C 30.09in /  1018.8hPa WNW 0.9mph /  1.4km/h 2.0mph /  3.2km/h 61% 0.00in /  0mm
10:55 77.0 °F /  25 °C 61.2 °F /  16.2 °C 30.09in /  1018.8hPa Calm   1.0mph /  1.6km/h 58% 0.00in /  0mm
11:00 77.7 °F /  25.4 °C 61.7 °F /  16.5 °C 30.09in /  1018.8hPa East 2.0mph /  3.2km/h 3.0mph /  4.8km/h 58% 0.00in /  0mm
11:05 77.5 °F /  25.3 °C 60.6 °F /  15.9 °C 30.09in /  1018.8hPa ENE 2.0mph /  3.2km/h 4.0mph /  6.4km/h 56% 0.00in /  0mm
11:10 77.4 °F /  25.2 °C 61.9 °F /  16.6 °C 30.08in /  1018.5hPa ENE 0.9mph /  1.4km/h 2.0mph /  3.2km/h 59% 0.00in /  0mm
11:15 77.4 °F /  25.2 °C 59.9 °F /  15.5 °C 30.08in /  1018.5hPa ESE 2.0mph /  3.2km/h 4.0mph /  6.4km/h 55% 0.00in /  0mm
11:20 76.8 °F /  24.9 °C 61.0 °F /  16.1 °C 30.08in /  1018.5hPa ENE 0.9mph /  1.4km/h 3.0mph /  4.8km/h 58% 0.00in /  0mm
11:25 77.5 °F /  25.3 °C 62.1 °F /  16.7 °C 30.08in /  1018.5hPa ENE 0.9mph /  1.4km/h 1.0mph /  1.6km/h 59% 0.00in /  0mm
11:30 78.6 °F /  25.9 °C 61.2 °F /  16.2 °C 30.08in /  1018.5hPa East 0.9mph /  1.4km/h 2.0mph /  3.2km/h 55% 0.00in /  0mm
11:35 78.4 °F /  25.8 °C 61.0 °F /  16.1 °C 30.08in /  1018.5hPa ENE 2.9mph /  4.7km/h 4.0mph /  6.4km/h 55% 0.00in /  0mm
11:40 79.0 °F /  26.1 °C 61.5 °F /  16.4 °C 30.08in /  1018.5hPa NE 0.9mph /  1.4km/h 2.0mph /  3.2km/h 55% 0.00in /  0mm
11:45 79.3 °F /  26.3 °C 60.8 °F /  16 °C 30.08in /  1018.5hPa ENE 2.0mph /  3.2km/h 3.0mph /  4.8km/h 53% 0.00in /  0mm
11:50 78.4 °F /  25.8 °C 59.4 °F /  15.2 °C 30.08in /  1018.5hPa ENE 2.0mph /  3.2km/h 5.0mph /  8km/h 52% 0.00in /  0mm
11:55 78.3 °F /  25.7 °C 59.7 °F /  15.4 °C 30.08in /  1018.5hPa NNE 0.9mph /  1.4km/h 2.0mph /  3.2km/h 53% 0.00in /  0mm
12:00 77.5 °F /  25.3 °C 60.1 °F /  15.6 °C 30.08in /  1018.5hPa ENE 2.0mph /  3.2km/h 3.0mph /  4.8km/h 55% 0.00in /  0mm
12:10 76.3 °F /  24.6 °C 59.4 °F /  15.2 °C 30.08in /  1018.5hPa ENE 0.9mph /  1.4km/h 1.0mph /  1.6km/h 56% 0.00in /  0mm
12:15 75.9 °F /  24.4 °C 59.2 °F /  15.1 °C 30.08in /  1018.5hPa ENE 0.9mph /  1.4km/h 2.0mph /  3.2km/h 56% 0.00in /  0mm
12:20 76.6 °F /  24.8 °C 60.3 °F /  15.7 °C 30.08in /  1018.5hPa ENE 2.0mph /  3.2km/h 2.0mph /  3.2km/h 57% 0.00in /  0mm
12:25 77.7 °F /  25.4 °C 59.2 °F /  15.1 °C 30.07in /  1018.2hPa SE 2.0mph /  3.2km/h 2.0mph /  3.2km/h 53% 0.00in /  0mm
12:30 78.3 °F /  25.7 °C 59.2 °F /  15.1 °C 30.07in /  1018.2hPa East 0.9mph /  1.4km/h 4.0mph /  6.4km/h 52% 0.00in /  0mm
12:35 77.4 °F /  25.2 °C 58.8 °F /  14.9 °C 30.07in /  1018.2hPa Calm     53% 0.00in /  0mm
12:40 77.5 °F /  25.3 °C 60.6 °F /  15.9 °C 30.07in /  1018.2hPa NE 2.9mph /  4.7km/h 3.0mph /  4.8km/h 56% 0.00in /  0mm
12:46 77.7 °F /  25.4 °C 59.2 °F /  15.1 °C 30.06in /  1017.8hPa Calm     53% 0.00in /  0mm
12:51 79.0 °F /  26.1 °C 59.4 °F /  15.2 °C 30.06in /  1017.8hPa NW 2.0mph /  3.2km/h 3.0mph /  4.8km/h 51% 0.00in /  0mm
12:56 79.0 °F /  26.1 °C 59.4 °F /  15.2 °C 30.06in /  1017.8hPa SSE 4.0mph /  6.4km/h 4.0mph /  6.4km/h 51% 0.00in /  0mm
13:01 78.8 °F /  26 °C 58.6 °F /  14.8 °C 30.05in /  1017.5hPa East 0.9mph /  1.4km/h 4.0mph /  6.4km/h 50% 0.00in /  0mm
13:06 79.2 °F /  26.2 °C 59.5 °F /  15.3 °C 30.05in /  1017.5hPa Calm     51% 0.00in /  0mm
13:11 79.9 °F /  26.6 °C 58.5 °F /  14.7 °C 30.05in /  1017.5hPa Calm   1.0mph /  1.6km/h 48% 0.00in /  0mm
13:16 79.5 °F /  26.4 °C 58.6 °F /  14.8 °C 30.04in /  1017.2hPa NE 0.9mph /  1.4km/h 2.0mph /  3.2km/h 49% 0.00in /  0mm
13:21 79.2 °F /  26.2 °C 59.5 °F /  15.3 °C 30.04in /  1017.2hPa ENE 2.0mph /  3.2km/h 3.0mph /  4.8km/h 51% 0.00in /  0mm
13:26 79.0 °F /  26.1 °C 59.4 °F /  15.2 °C 30.03in /  1016.8hPa ENE 2.9mph /  4.7km/h 4.0mph /  6.4km/h 51% 0.00in /  0mm
13:31 79.2 °F /  26.2 °C 59.5 °F /  15.3 °C 30.03in /  1016.8hPa NE 0.9mph /  1.4km/h 3.0mph /  4.8km/h 51% 0.00in /  0mm
13:36 79.2 °F /  26.2 °C 59.0 °F /  15 °C 30.03in /  1016.8hPa ENE 2.0mph /  3.2km/h 8.0mph /  12.9km/h 50% 0.00in /  0mm
13:41 78.4 °F /  25.8 °C 58.8 °F /  14.9 °C 30.02in /  1016.5hPa Calm   2.0mph /  3.2km/h 51% 0.00in /  0mm
13:46 78.3 °F /  25.7 °C 58.6 °F /  14.8 °C 30.02in /  1016.5hPa Calm     51% 0.00in /  0mm
13:51 78.4 °F /  25.8 °C 59.9 °F /  15.5 °C 30.02in /  1016.5hPa ENE 2.0mph /  3.2km/h 3.0mph /  4.8km/h 53% 0.00in /  0mm
13:56 79.0 °F /  26.1 °C 58.1 °F /  14.5 °C 30.01in /  1016.1hPa NE 2.0mph /  3.2km/h 2.0mph /  3.2km/h 49% 0.00in /  0mm
14:01 78.3 °F /  25.7 °C 58.1 °F /  14.5 °C 30.01in /  1016.1hPa East 0.9mph /  1.4km/h 1.0mph /  1.6km/h 50% 0.00in /  0mm
14:06 77.7 °F /  25.4 °C 58.6 °F /  14.8 °C 30.01in /  1016.1hPa Calm   1.0mph /  1.6km/h 52% 0.00in /  0mm
14:16 77.5 °F /  25.3 °C 60.6 °F /  15.9 °C 30.01in /  1016.1hPa East 0.9mph /  1.4km/h 1.0mph /  1.6km/h 56% 0.00in /  0mm
14:21 77.5 °F /  25.3 °C 58.5 °F /  14.7 °C 30.01in /  1016.1hPa Calm   1.0mph /  1.6km/h 52% 0.00in /  0mm
14:26 77.5 °F /  25.3 °C 57.4 °F /  14.1 °C 30.00in /  1015.8hPa Calm   1.0mph /  1.6km/h 50% 0.00in /  0mm
14:31 78.1 °F /  25.6 °C 59.0 °F /  15 °C 30.00in /  1015.8hPa ENE 0.9mph /  1.4km/h 1.0mph /  1.6km/h 52% 0.00in /  0mm
14:36 78.8 °F /  26 °C 58.6 °F /  14.8 °C 29.99in /  1015.5hPa NE 2.9mph /  4.7km/h 4.0mph /  6.4km/h 50% 0.00in /  0mm
14:41 79.5 °F /  26.4 °C 58.6 °F /  14.8 °C 29.99in /  1015.5hPa ENE 2.0mph /  3.2km/h 3.0mph /  4.8km/h 49% 0.00in /  0mm
14:48 80.2 °F /  26.8 °C 58.1 °F /  14.5 °C 29.99in /  1015.5hPa West 0.9mph /  1.4km/h 2.0mph /  3.2km/h 47% 0.00in /  0mm
14:51 80.2 °F /  26.8 °C 57.6 °F /  14.2 °C 29.98in /  1015.1hPa Calm   1.0mph /  1.6km/h 46% 0.00in /  0mm
15:01 80.1 °F /  26.7 °C 58.6 °F /  14.8 °C 29.98in /  1015.1hPa Calm   2.0mph /  3.2km/h 48% 0.00in /  0mm
15:06 79.9 °F /  26.6 °C 57.9 °F /  14.4 °C 29.98in /  1015.1hPa Calm   1.0mph /  1.6km/h 47% 0.00in /  0mm
15:11 79.9 °F /  26.6 °C 57.9 °F /  14.4 °C 29.98in /  1015.1hPa Calm   1.0mph /  1.6km/h 47% 0.00in /  0mm
15:16 79.9 °F /  26.6 °C 57.9 °F /  14.4 °C 29.98in /  1015.1hPa Calm   1.0mph /  1.6km/h 47% 0.00in /  0mm
15:21 79.2 °F /  26.2 °C 59.0 °F /  15 °C 29.99in /  1015.5hPa Calm   2.0mph /  3.2km/h 50% 0.00in /  0mm
15:26 78.1 °F /  25.6 °C 59.5 °F /  15.3 °C 29.99in /  1015.5hPa Calm   1.0mph /  1.6km/h 53% 0.00in /  0mm
15:31 77.4 °F /  25.2 °C 59.9 °F /  15.5 °C 30.00in /  1015.8hPa ESE 0.9mph /  1.4km/h 1.0mph /  1.6km/h 55% 0.00in /  0mm
15:36 76.3 °F /  24.6 °C 59.9 °F /  15.5 °C 30.00in /  1015.8hPa Calm     57% 0.00in /  0mm
15:41 75.9 °F /  24.4 °C 60.1 °F /  15.6 °C 30.01in /  1016.1hPa Calm   1.0mph /  1.6km/h 58% 0.00in /  0mm
15:46 75.0 °F /  23.9 °C 59.2 °F /  15.1 °C 30.00in /  1015.8hPa Calm   3.0mph /  4.8km/h 58% 0.00in /  0mm
15:47 74.8 °F /  23.8 °C 59.0 °F /  15 °C 30.00in /  1015.8hPa Calm   1.0mph /  1.6km/h 58% 0.00in /  0mm
15:52 74.1 °F /  23.4 °C 59.4 °F /  15.2 °C 30.00in /  1015.8hPa SE 0.9mph /  1.4km/h 1.0mph /  1.6km/h 60% 0.00in /  0mm
15:57 73.0 °F /  22.8 °C 59.2 °F /  15.1 °C 29.99in /  1015.5hPa East 0.9mph /  1.4km/h 1.0mph /  1.6km/h 62% 0.00in /  0mm
16:02 72.7 °F /  22.6 °C 60.3 °F /  15.7 °C 29.99in /  1015.5hPa Calm   1.0mph /  1.6km/h 65% 0.00in /  0mm
16:07 72.9 °F /  22.7 °C 60.4 °F /  15.8 °C 29.98in /  1015.1hPa ESE 3.0mph /  4.8km/h 3.0mph /  4.8km/h 65% 0.00in /  0mm
16:12 73.0 °F /  22.8 °C 60.1 °F /  15.6 °C 29.98in /  1015.1hPa East 2.0mph /  3.2km/h 2.0mph /  3.2km/h 64% 0.00in /  0mm
16:17 72.9 °F /  22.7 °C 59.5 °F /  15.3 °C 29.98in /  1015.1hPa East 2.0mph /  3.2km/h 2.0mph /  3.2km/h 63% 0.00in /  0mm
16:22 72.9 °F /  22.7 °C 59.9 °F /  15.5 °C 29.98in /  1015.1hPa Calm   1.0mph /  1.6km/h 64% 0.00in /  0mm
16:27 73.0 °F /  22.8 °C 60.6 °F /  15.9 °C 29.97in /  1014.8hPa East 0.9mph /  1.4km/h 5.0mph /  8km/h 65% 0.00in /  0mm
16:32 72.9 °F /  22.7 °C 60.8 °F /  16 °C 29.97in /  1014.8hPa NNE 0.9mph /  1.4km/h 1.0mph /  1.6km/h 66% 0.00in /  0mm
16:37 72.7 °F /  22.6 °C 61.2 °F /  16.2 °C 29.97in /  1014.8hPa ENE 0.9mph /  1.4km/h 2.0mph /  3.2km/h 67% 0.00in /  0mm
16:42 72.3 °F /  22.4 °C 60.8 °F /  16 °C 29.97in /  1014.8hPa Calm   3.0mph /  4.8km/h 67% 0.00in /  0mm
16:47 72.3 °F /  22.4 °C 61.5 °F /  16.4 °C 29.97in /  1014.8hPa South 0.9mph /  1.4km/h 1.0mph /  1.6km/h 69% 0.00in /  0mm
16:52 72.7 °F /  22.6 °C 61.2 °F /  16.2 °C 29.97in /  1014.8hPa Calm   1.0mph /  1.6km/h 67% 0.00in /  0mm
16:57 72.7 °F /  22.6 °C 61.2 °F /  16.2 °C 29.96in /  1014.4hPa Calm   2.0mph /  3.2km/h 67% 0.00in /  0mm
17:02 73.0 °F /  22.8 °C 61.5 °F /  16.4 °C 29.96in /  1014.4hPa NE 2.0mph /  3.2km/h 2.0mph /  3.2km/h 67% 0.00in /  0mm
17:07 73.0 °F /  22.8 °C 61.5 °F /  16.4 °C 29.97in /  1014.8hPa Calm     67% 0.00in /  0mm
17:13 73.0 °F /  22.8 °C 60.1 °F /  15.6 °C 29.97in /  1014.8hPa Calm     64% 0.00in /  0mm
17:18 73.2 °F /  22.9 °C 60.8 °F /  16 °C 29.97in /  1014.8hPa Calm   1.0mph /  1.6km/h 65% 0.00in /  0mm
17:23 73.6 °F /  23.1 °C 61.2 °F /  16.2 °C 29.97in /  1014.8hPa Calm     65% 0.00in /  0mm
17:28 73.6 °F /  23.1 °C 60.3 °F /  15.7 °C 29.96in /  1014.4hPa Calm     63% 0.00in /  0mm
17:33 73.6 °F /  23.1 °C 60.6 °F /  15.9 °C 29.96in /  1014.4hPa ESE 0.9mph /  1.4km/h 1.0mph /  1.6km/h 64% 0.00in /  0mm
17:38 72.9 °F /  22.7 °C 60.4 °F /  15.8 °C 29.96in /  1014.4hPa Calm   3.0mph /  4.8km/h 65% 0.00in /  0mm
17:41 72.7 °F /  22.6 °C 60.3 °F /  15.7 °C 29.96in /  1014.4hPa Calm   1.0mph /  1.6km/h 65% 0.00in /  0mm
17:46 72.3 °F /  22.4 °C 60.3 °F /  15.7 °C 29.96in /  1014.4hPa Calm     66% 0.00in /  0mm
17:51 72.3 °F /  22.4 °C 59.9 °F /  15.5 °C 29.96in /  1014.4hPa Calm     65% 0.00in /  0mm
17:56 72.1 °F /  22.3 °C 60.6 °F /  15.9 °C 29.96in /  1014.4hPa Calm     67% 0.00in /  0mm
18:01 72.0 °F /  22.2 °C 60.8 °F /  16 °C 29.96in /  1014.4hPa Calm     68% 0.00in /  0mm
18:06 72.0 °F /  22.2 °C 61.2 °F /  16.2 °C 29.96in /  1014.4hPa Calm     69% 0.00in /  0mm
18:11 71.8 °F /  22.1 °C 61.5 °F /  16.4 °C 29.96in /  1014.4hPa Calm   1.0mph /  1.6km/h 70% 0.00in /  0mm
18:21 70.5 °F /  21.4 °C 61.0 °F /  16.1 °C 29.97in /  1014.8hPa ENE 2.9mph /  4.7km/h 4.0mph /  6.4km/h 72% 0.00in /  0mm
18:26 69.3 °F /  20.7 °C 62.1 °F /  16.7 °C 29.97in /  1014.8hPa Calm   1.0mph /  1.6km/h 78% 0.00in /  0mm
18:32 68.0 °F /  20 °C 61.9 °F /  16.6 °C 29.97in /  1014.8hPa Calm     81% 0.00in /  0mm
18:37 67.3 °F /  19.6 °C 61.9 °F /  16.6 °C 29.98in /  1015.1hPa Calm     83% 0.01in /  0.25mm
18:42 66.6 °F /  19.2 °C 61.9 °F /  16.6 °C 29.98in /  1015.1hPa Calm     85% 0.01in /  0.25mm
18:47 66.0 °F /  18.9 °C 61.7 °F /  16.5 °C 29.98in /  1015.1hPa Calm     86% 0.03in /  0.76mm
18:52 65.5 °F /  18.6 °C 62.2 °F /  16.8 °C 29.98in /  1015.1hPa Calm     89% 0.04in /  1.02mm
18:57 64.9 °F /  18.3 °C 61.9 °F /  16.6 °C 29.98in /  1015.1hPa Calm     90% 0.04in /  1.02mm
19:02 64.4 °F /  18 °C 61.7 °F /  16.5 °C 29.99in /  1015.5hPa Calm     91% 0.04in /  1.02mm
19:07 64.0 °F /  17.8 °C 61.7 °F /  16.5 °C 30.01in /  1016.1hPa Calm     92% 0.04in /  1.02mm
19:12 63.9 °F /  17.7 °C 61.9 °F /  16.6 °C 30.01in /  1016.1hPa Calm     93% 0.09in /  2.29mm
19:17 63.7 °F /  17.6 °C 61.9 °F /  16.6 °C 30.00in /  1015.8hPa NE 0.9mph /  1.4km/h 1.0mph /  1.6km/h 94% 0.12in /  3.05mm
19:22 63.7 °F /  17.6 °C 62.2 °F /  16.8 °C 29.99in /  1015.5hPa Calm   1.0mph /  1.6km/h 95% 0.15in /  3.81mm
19:27 63.3 °F /  17.4 °C 61.9 °F /  16.6 °C 29.99in /  1015.5hPa Calm   1.0mph /  1.6km/h 95% 0.17in /  4.32mm
19:32 63.3 °F /  17.4 °C 61.9 °F /  16.6 °C 29.99in /  1015.5hPa Calm     95% 0.17in /  4.32mm
19:37 63.3 °F /  17.4 °C 62.2 °F /  16.8 °C 29.99in /  1015.5hPa Calm   1.0mph /  1.6km/h 96% 0.16in /  4.06mm
19:42 63.1 °F /  17.3 °C 62.1 °F /  16.7 °C 29.99in /  1015.5hPa Calm     96% 0.16in /  4.06mm
19:47 63.1 °F /  17.3 °C 62.1 °F /  16.7 °C 29.99in /  1015.5hPa Calm     96% 0.14in /  3.56mm
19:52 63.0 °F /  17.2 °C 61.9 °F /  16.6 °C 30.00in /  1015.8hPa Calm   1.0mph /  1.6km/h 96% 0.13in /  3.3mm
20:02 63.0 °F /  17.2 °C 61.9 °F /  16.6 °C 30.01in /  1016.1hPa Calm   1.0mph /  1.6km/h 96% 0.14in /  3.56mm
20:07 63.0 °F /  17.2 °C 61.9 °F /  16.6 °C 30.00in /  1015.8hPa Calm     96% 0.14in /  3.56mm
20:12 63.0 °F /  17.2 °C 61.9 °F /  16.6 °C 30.01in /  1016.1hPa Calm     96% 0.08in /  2.03mm
20:22 62.8 °F /  17.1 °C 61.9 °F /  16.6 °C 30.01in /  1016.1hPa Calm     97% 0.19in /  4.83mm
20:28 62.8 °F /  17.1 °C 61.9 °F /  16.6 °C 30.01in /  1016.1hPa Calm     97% 0.17in /  4.32mm
20:33 62.6 °F /  17 °C 61.7 °F /  16.5 °C 30.01in /  1016.1hPa Calm     97% 0.17in /  4.32mm
20:37 62.8 °F /  17.1 °C 61.9 °F /  16.6 °C 30.01in /  1016.1hPa Calm     97% 0.17in /  4.32mm
20:43 62.6 °F /  17 °C 61.7 °F /  16.5 °C 30.01in /  1016.1hPa Calm     97% 0.18in /  4.57mm
20:53 62.4 °F /  16.9 °C 61.5 °F /  16.4 °C 30.01in /  1016.1hPa South 0.9mph /  1.4km/h 2.0mph /  3.2km/h 97% 0.19in /  4.83mm
20:58 62.4 °F /  16.9 °C 61.5 °F /  16.4 °C 30.01in /  1016.1hPa Calm     97% 0.18in /  4.57mm
21:03 62.4 °F /  16.9 °C 61.5 °F /  16.4 °C 30.01in /  1016.1hPa Calm     97% 0.18in /  4.57mm
21:08 62.4 °F /  16.9 °C 61.5 °F /  16.4 °C 30.01in /  1016.1hPa Calm   1.0mph /  1.6km/h 97% 0.18in /  4.57mm
21:13 62.4 °F /  16.9 °C 61.5 °F /  16.4 °C 30.01in /  1016.1hPa Calm     97% 0.18in /  4.57mm
21:18 62.4 °F /  16.9 °C 61.5 °F /  16.4 °C 30.01in /  1016.1hPa Calm   1.0mph /  1.6km/h 97% 0.08in /  2.03mm
21:23 62.4 °F /  16.9 °C 61.5 °F /  16.4 °C 30.01in /  1016.1hPa Calm   1.0mph /  1.6km/h 97% 0.03in /  0.76mm
21:28 62.4 °F /  16.9 °C 61.5 °F /  16.4 °C 30.00in /  1015.8hPa Calm     97% 0.04in /  1.02mm
21:33 62.2 °F /  16.8 °C 61.3 °F /  16.3 °C 30.01in /  1016.1hPa Calm   1.0mph /  1.6km/h 97% 0.04in /  1.02mm
21:38 62.2 °F /  16.8 °C 61.3 °F /  16.3 °C 30.01in /  1016.1hPa Calm     97% 0.04in /  1.02mm
21:43 62.1 °F /  16.7 °C 61.2 °F /  16.2 °C 30.01in /  1016.1hPa Calm     97% 0.03in /  0.76mm
21:48 62.1 °F /  16.7 °C 61.2 °F /  16.2 °C 30.01in /  1016.1hPa Calm   1.0mph /  1.6km/h 97% 0.02in /  0.51mm
21:53 62.1 °F /  16.7 °C 61.2 °F /  16.2 °C 30.01in /  1016.1hPa Calm     97% 0.02in /  0.51mm
21:58 62.1 °F /  16.7 °C 61.5 °F /  16.4 °C 30.01in /  1016.1hPa Calm   1.0mph /  1.6km/h 98% 0.03in /  0.76mm
22:03 62.1 °F /  16.7 °C 61.5 °F /  16.4 °C 30.01in /  1016.1hPa NNW 0.9mph /  1.4km/h 1.0mph /  1.6km/h 98% 0.03in /  0.76mm
22:09 61.9 °F /  16.6 °C 61.3 °F /  16.3 °C 30.02in /  1016.5hPa Calm     98% 0.03in /  0.76mm
22:14 62.1 °F /  16.7 °C 61.5 °F /  16.4 °C 30.02in /  1016.5hPa Calm   1.0mph /  1.6km/h 98% 0.03in /  0.76mm
22:19 62.1 °F /  16.7 °C 61.5 °F /  16.4 °C 30.01in /  1016.1hPa Calm     98% 0.04in /  1.02mm
22:24 61.9 °F /  16.6 °C 61.3 °F /  16.3 °C 30.01in /  1016.1hPa Calm     98% 0.03in /  0.76mm
22:29 61.9 °F /  16.6 °C 61.3 °F /  16.3 °C 30.01in /  1016.1hPa Calm     98% 0.02in /  0.51mm
22:34 61.9 °F /  16.6 °C 61.3 °F /  16.3 °C 30.02in /  1016.5hPa Calm     98% 0.02in /  0.51mm
22:39 61.5 °F /  16.4 °C 61.0 °F /  16.1 °C 30.01in /  1016.1hPa Calm     98% 0.02in /  0.51mm
22:44 61.5 °F /  16.4 °C 61.0 °F /  16.1 °C 30.01in /  1016.1hPa Calm     98% 0.02in /  0.51mm
22:49 61.5 °F /  16.4 °C 61.0 °F /  16.1 °C 30.01in /  1016.1hPa Calm     98% 0.02in /  0.51mm
22:54 61.3 °F /  16.3 °C 60.8 °F /  16 °C 30.01in /  1016.1hPa Calm     98% 0.02in /  0.51mm
22:59 61.3 °F /  16.3 °C 60.8 °F /  16 °C 30.01in /  1016.1hPa Calm     98% 0.01in /  0.25mm
23:04 61.3 °F /  16.3 °C 60.8 °F /  16 °C 30.01in /  1016.1hPa Calm     98% 0.01in /  0.25mm
23:09 61.2 °F /  16.2 °C 60.6 °F /  15.9 °C 30.01in /  1016.1hPa Calm     98% 0.01in /  0.25mm
23:14 61.2 °F /  16.2 °C 60.6 °F /  15.9 °C 30.01in /  1016.1hPa Calm     98% 0.00in /  0mm
23:19 61.3 °F /  16.3 °C 60.8 °F /  16 °C 30.01in /  1016.1hPa Calm     98% 0.00in /  0mm
23:24 61.3 °F /  16.3 °C 60.8 °F /  16 °C 30.01in /  1016.1hPa Calm     98% 0.00in /  0mm
23:29 61.3 °F /  16.3 °C 60.8 °F /  16 °C 30.01in /  1016.1hPa Calm     98% 0.00in /  0mm
23:34 61.3 °F /  16.3 °C 60.8 °F /  16 °C 30.01in /  1016.1hPa Calm   1.0mph /  1.6km/h 98% 0.00in /  0mm
23:39 61.3 °F /  16.3 °C 60.8 °F /  16 °C 30.01in /  1016.1hPa Calm     98% 0.00in /  0mm
23:44 61.3 °F /  16.3 °C 60.8 °F /  16 °C 30.01in /  1016.1hPa Calm     98% 0.00in /  0mm
23:50 61.3 °F /  16.3 °C 60.8 °F /  16 °C 30.01in /  1016.1hPa Calm     98% 0.00in /  0mm
23:55 61.2 °F /  16.2 °C 60.6 °F /  15.9 °C 30.01in /  1016.1hPa Calm     98% 0.00in /  0mm
WheeWeather.com
Compliments of Weather Underground - 2.5 mb